createdAt,value
2019-02-28T00:01:04.638Z,59.94
2019-02-28T00:03:33.555Z,60.27
2019-02-28T00:06:02.245Z,60.15
2019-02-28T00:08:31.011Z,60.34
2019-02-28T00:11:02.056Z,60.34
2019-02-28T00:13:30.152Z,60.47
2019-02-28T00:16:00.195Z,60.35
2019-02-28T00:18:29.287Z,61.03
2019-02-28T00:20:57.924Z,60.83
2019-02-28T00:23:26.591Z,60.89
2019-02-28T00:25:55.347Z,60.84
2019-02-28T00:28:25.878Z,60.84
2019-02-28T00:30:54.437Z,60.97
2019-02-28T00:33:23.017Z,60.92
2019-02-28T00:35:51.572Z,60.92
2019-02-28T00:38:20.236Z,61.20
2019-02-28T00:40:48.818Z,60.67
2019-02-28T00:43:17.451Z,60.67
2019-02-28T00:45:46.056Z,60.32
2019-02-28T00:48:14.679Z,60.33
2019-02-28T00:50:43.263Z,60.08
2019-02-28T00:53:11.924Z,60.46
2019-02-28T00:55:40.640Z,60.04
2019-02-28T00:58:09.235Z,60.06
2019-02-28T01:00:38.212Z,59.95
2019-02-28T01:03:06.882Z,59.94
2019-02-28T01:05:36.590Z,59.77
2019-02-28T01:08:06.035Z,59.75
2019-02-28T01:10:38.715Z,59.72
2019-02-28T01:13:05.468Z,59.78
2019-02-28T01:15:34.137Z,59.63
2019-02-28T01:18:02.733Z,59.70
2019-02-28T01:20:31.304Z,59.71
2019-02-28T01:22:59.929Z,59.82
2019-02-28T01:25:28.575Z,59.65
2019-02-28T01:27:57.136Z,59.57
2019-02-28T01:30:25.799Z,59.57
2019-02-28T01:32:54.428Z,59.43
2019-02-28T01:35:23.002Z,59.45
2019-02-28T01:37:52.359Z,59.27
2019-02-28T01:40:21.751Z,59.31
2019-02-28T01:42:53.938Z,59.31
2019-02-28T01:45:20.705Z,59.33
2019-02-28T01:47:51.774Z,59.39
2019-02-28T01:50:19.715Z,59.30
2019-02-28T01:52:48.478Z,59.39
2019-02-28T01:55:17.118Z,59.56
2019-02-28T01:57:45.675Z,59.44
2019-02-28T02:00:20.422Z,59.44
2019-02-28T02:02:49.000Z,59.68
2019-02-28T02:05:18.050Z,59.43
2019-02-28T02:07:46.685Z,59.43
2019-02-28T02:10:21.708Z,59.32
2019-02-28T02:12:51.881Z,59.09
2019-02-28T02:15:20.926Z,59.09
2019-02-28T02:17:49.575Z,59.15
2019-02-28T02:20:20.089Z,59.15
2019-02-28T02:22:48.653Z,59.42
2019-02-28T02:25:17.422Z,59.23
2019-02-28T02:27:46.013Z,58.72
2019-02-28T02:30:24.752Z,58.79
2019-02-28T02:32:53.271Z,58.62
2019-02-28T02:35:21.910Z,58.42
2019-02-28T02:37:50.527Z,58.55
2019-02-28T02:40:22.937Z,58.49
2019-02-28T02:42:50.091Z,58.43
2019-02-28T02:45:18.975Z,58.36
2019-02-28T02:47:47.622Z,58.32
2019-02-28T02:50:16.460Z,58.32
2019-02-28T02:52:45.124Z,58.24
2019-02-28T02:55:14.920Z,58.25
2019-02-28T02:57:50.409Z,57.97
2019-02-28T03:00:16.864Z,57.91
2019-02-28T03:02:45.925Z,57.73
2019-02-28T03:05:15.150Z,57.50
2019-02-28T03:07:43.816Z,57.72
2019-02-28T03:10:17.657Z,57.59
2019-02-28T03:12:45.451Z,57.23
2019-02-28T03:15:24.963Z,57.12
2019-02-28T03:17:49.354Z,57.24
2019-02-28T03:20:18.300Z,56.88
2019-02-28T03:22:46.969Z,56.88
2019-02-28T03:25:18.800Z,57.15
2019-02-28T03:27:55.127Z,56.95
2019-02-28T03:30:27.678Z,56.99
2019-02-28T03:32:49.655Z,57.08
2019-02-28T03:35:18.376Z,57.11
2019-02-28T03:37:47.241Z,57.13
2019-02-28T03:40:15.951Z,57.10
2019-02-28T03:42:44.534Z,56.95
2019-02-28T03:45:17.354Z,57.00
2019-02-28T03:47:45.969Z,57.01
2019-02-28T03:50:14.913Z,57.21
2019-02-28T03:52:44.661Z,57.14
2019-02-28T03:55:14.611Z,57.16
2019-02-28T03:57:43.425Z,57.02
2019-02-28T04:00:18.045Z,56.95
2019-02-28T04:02:47.079Z,56.92
2019-02-28T04:05:15.707Z,56.91
2019-02-28T04:07:44.319Z,56.66
2019-02-28T04:10:16.746Z,56.57
2019-02-28T04:12:46.903Z,56.55
2019-02-28T04:15:20.508Z,56.68
2019-02-28T04:17:49.051Z,56.60
2019-02-28T04:20:18.090Z,56.35
2019-02-28T04:22:46.752Z,56.29
2019-02-28T04:25:15.378Z,56.25
2019-02-28T04:27:43.988Z,56.22
2019-02-28T04:30:14.350Z,56.38
2019-02-28T04:32:42.984Z,56.36
2019-02-28T04:35:12.519Z,56.43
2019-02-28T04:37:46.780Z,56.48
2019-02-28T04:40:13.563Z,56.67
2019-02-28T04:42:42.118Z,56.65
2019-02-28T04:45:13.126Z,56.78
2019-02-28T04:47:41.888Z,56.76
2019-02-28T04:50:12.212Z,56.97
2019-02-28T04:52:46.755Z,57.19
2019-02-28T04:55:12.184Z,57.26
2019-02-28T04:57:42.395Z,57.54
2019-02-28T05:00:18.386Z,57.61
2019-02-28T05:02:46.944Z,57.74
2019-02-28T05:05:15.588Z,58.00
2019-02-28T05:07:44.272Z,57.86
2019-02-28T05:10:13.404Z,58.40
2019-02-28T05:12:42.033Z,58.51
2019-02-28T05:15:15.043Z,58.32
2019-02-28T05:17:43.676Z,58.43
2019-02-28T05:20:12.469Z,58.62
2019-02-28T05:22:41.293Z,58.83
2019-02-28T05:25:17.420Z,58.69
2019-02-28T05:27:44.255Z,58.95
2019-02-28T05:30:19.542Z,59.29
2019-02-28T05:32:47.599Z,59.21
2019-02-28T05:35:16.149Z,59.83
2019-02-28T05:37:48.185Z,59.67
2019-02-28T05:40:15.967Z,60.04
2019-02-28T05:42:44.613Z,59.65
2019-02-28T05:45:14.866Z,59.84
2019-02-28T05:47:46.625Z,59.36
2019-02-28T05:50:16.823Z,59.44
2019-02-28T05:52:44.461Z,59.42
2019-02-28T05:55:13.462Z,59.01
2019-02-28T05:57:43.284Z,58.66
2019-02-28T06:00:15.838Z,58.50
2019-02-28T06:02:44.472Z,58.34
2019-02-28T06:05:13.154Z,58.71
2019-02-28T06:07:41.835Z,57.85
2019-02-28T06:10:12.365Z,57.49
2019-02-28T06:12:43.947Z,57.35
2019-02-28T06:15:13.090Z,56.94
2019-02-28T06:17:41.708Z,56.66
2019-02-28T06:20:16.428Z,56.36
2019-02-28T06:22:42.653Z,55.73
2019-02-28T06:25:12.501Z,55.70
2019-02-28T06:27:42.312Z,54.99
2019-02-28T06:30:13.829Z,54.65
2019-02-28T06:32:42.383Z,54.34
2019-02-28T06:35:16.012Z,54.01
2019-02-28T06:37:41.517Z,53.75
2019-02-28T06:40:14.484Z,53.43
2019-02-28T06:42:43.436Z,53.05
2019-02-28T06:45:18.526Z,52.81
2019-02-28T06:47:49.670Z,52.15
2019-02-28T06:50:17.775Z,51.85
2019-02-28T06:52:46.357Z,51.68
2019-02-28T06:55:16.633Z,51.52
2019-02-28T06:57:46.680Z,51.13
2019-02-28T07:00:17.313Z,50.58
2019-02-28T07:02:46.044Z,50.08
2019-02-28T07:05:14.686Z,49.40
2019-02-28T07:07:45.606Z,49.40
2019-02-28T07:10:19.328Z,48.40
2019-02-28T07:12:49.374Z,48.16
2019-02-28T07:15:24.734Z,47.80
2019-02-28T07:17:52.633Z,47.42
2019-02-28T07:20:21.511Z,46.24
2019-02-28T07:22:55.574Z,46.20
2019-02-28T07:25:22.174Z,45.92
2019-02-28T07:27:53.623Z,45.56
2019-02-28T07:30:23.818Z,45.05
2019-02-28T07:32:52.372Z,44.87
2019-02-28T07:35:21.136Z,44.44
2019-02-28T07:37:53.218Z,44.44
2019-02-28T07:40:20.195Z,43.55
2019-02-28T07:42:48.856Z,43.08
2019-02-28T07:45:17.308Z,43.06
2019-02-28T07:47:51.687Z,42.90
2019-02-28T07:50:18.465Z,42.42
2019-02-28T07:52:48.602Z,42.32
2019-02-28T07:55:23.567Z,42.56
2019-02-28T07:57:56.291Z,42.58
2019-02-28T08:00:24.415Z,42.17
2019-02-28T08:02:53.043Z,41.45
2019-02-28T08:05:21.775Z,41.35
2019-02-28T08:07:52.303Z,40.45
2019-02-28T08:10:23.643Z,40.01
2019-02-28T08:12:52.253Z,40.26
2019-02-28T08:15:25.976Z,39.96
2019-02-28T08:17:54.591Z,39.61
2019-02-28T08:20:23.255Z,39.84
2019-02-28T08:22:52.004Z,39.46
2019-02-28T08:25:20.645Z,38.87
2019-02-28T08:27:49.310Z,38.44
2019-02-28T08:30:23.563Z,38.57
2019-02-28T08:32:52.230Z,38.42
2019-02-28T08:35:20.864Z,37.53
2019-02-28T08:37:55.586Z,37.59
2019-02-28T08:40:22.067Z,37.53
2019-02-28T08:42:50.784Z,36.99
2019-02-28T08:45:19.411Z,37.06
2019-02-28T08:47:48.167Z,36.94
2019-02-28T08:50:24.775Z,36.35
2019-02-28T08:52:56.150Z,35.56
2019-02-28T08:55:28.698Z,34.84
2019-02-28T08:57:58.116Z,34.91
2019-02-28T09:00:31.188Z,35.50
2019-02-28T09:02:56.196Z,33.98
2019-02-28T09:05:26.312Z,33.78
2019-02-28T09:07:55.331Z,33.20
2019-02-28T09:10:25.478Z,33.33
2019-02-28T09:12:54.159Z,33.08
2019-02-28T09:15:23.158Z,32.51
2019-02-28T09:17:51.880Z,32.64
2019-02-28T09:20:20.631Z,32.40
2019-02-28T09:22:49.277Z,32.45
2019-02-28T09:25:22.910Z,31.95
2019-02-28T09:27:51.828Z,31.69
2019-02-28T09:30:38.077Z,31.75
2019-02-28T09:33:06.772Z,31.68
2019-02-28T09:35:35.415Z,31.03
2019-02-28T09:38:08.056Z,31.07
2019-02-28T09:40:34.789Z,30.52
2019-02-28T09:43:03.427Z,30.53
2019-02-28T09:45:33.236Z,30.74
2019-02-28T09:48:02.408Z,29.92
2019-02-28T09:50:33.000Z,29.97
2019-02-28T09:53:01.493Z,29.70
2019-02-28T09:55:34.137Z,29.14
2019-02-28T09:58:00.525Z,29.37
2019-02-28T10:00:30.330Z,29.06
2019-02-28T10:02:59.013Z,29.11
2019-02-28T10:05:27.522Z,29.48
2019-02-28T10:08:01.529Z,28.81
2019-02-28T10:10:28.345Z,28.25
2019-02-28T10:12:57.043Z,28.80
2019-02-28T10:15:26.282Z,28.54
2019-02-28T10:17:55.019Z,28.56
2019-02-28T10:20:37.604Z,28.12
2019-02-28T10:23:06.278Z,28.42
2019-02-28T10:25:41.046Z,28.05
2019-02-28T10:28:05.492Z,27.95
2019-02-28T10:30:34.159Z,27.97
2019-02-28T10:33:04.418Z,27.84
2019-02-28T10:35:33.408Z,27.83
2019-02-28T10:38:03.732Z,27.60
2019-02-28T10:40:34.001Z,27.70
2019-02-28T10:43:02.631Z,27.57
2019-02-28T10:45:31.232Z,27.33
2019-02-28T10:48:02.916Z,27.24
2019-02-28T10:50:35.603Z,26.60
2019-02-28T10:53:06.099Z,26.61
2019-02-28T10:55:35.165Z,26.86
2019-02-28T10:58:04.218Z,27.12
2019-02-28T11:00:34.830Z,26.72
2019-02-28T11:03:03.787Z,26.39
2019-02-28T11:05:37.381Z,26.76
2019-02-28T11:08:09.803Z,26.01
2019-02-28T11:10:39.348Z,25.50
2019-02-28T11:13:10.920Z,25.47
2019-02-28T11:15:39.881Z,24.55
2019-02-28T11:18:10.023Z,25.16
2019-02-28T11:20:39.901Z,24.71
2019-02-28T11:23:14.320Z,23.90
2019-02-28T11:25:39.803Z,24.18
2019-02-28T11:28:08.981Z,23.23
2019-02-28T11:30:37.873Z,23.72
2019-02-28T11:33:06.967Z,23.67
2019-02-28T11:35:35.652Z,23.08
2019-02-28T11:38:05.629Z,23.06
2019-02-28T11:40:34.835Z,23.14
2019-02-28T11:43:04.258Z,22.51
2019-02-28T11:45:36.168Z,22.30
2019-02-28T11:48:10.552Z,22.32
2019-02-28T11:50:41.867Z,22.40
2019-02-28T11:53:09.829Z,22.20
2019-02-28T11:55:38.873Z,22.12
2019-02-28T11:58:07.499Z,22.18
2019-02-28T12:00:37.642Z,21.82
2019-02-28T12:03:06.376Z,21.64
2019-02-28T12:05:35.011Z,21.13
2019-02-28T12:08:09.354Z,21.16
2019-02-28T12:10:34.744Z,20.32
2019-02-28T12:13:03.449Z,20.15
2019-02-28T12:15:39.003Z,19.56
2019-02-28T12:18:07.963Z,19.29
2019-02-28T12:20:36.684Z,19.64
2019-02-28T12:23:05.323Z,18.61
2019-02-28T12:25:34.068Z,18.76
2019-02-28T12:28:06.341Z,18.57
2019-02-28T12:30:34.246Z,18.43
2019-02-28T12:33:03.076Z,17.56
2019-02-28T12:35:37.507Z,17.53
2019-02-28T12:38:02.256Z,17.49
2019-02-28T12:40:33.489Z,17.30
2019-02-28T12:43:05.318Z,17.36
2019-02-28T12:45:36.217Z,17.93
2019-02-28T12:48:05.104Z,17.82
2019-02-28T12:50:33.875Z,17.68
2019-02-28T12:53:02.521Z,17.67
2019-02-28T12:55:31.487Z,17.51
2019-02-28T12:58:00.496Z,17.31
2019-02-28T13:00:37.367Z,16.93
2019-02-28T13:03:06.461Z,17.11
2019-02-28T13:05:35.091Z,16.87
2019-02-28T13:08:05.873Z,17.03
2019-02-28T13:10:34.126Z,16.99
2019-02-28T13:13:06.854Z,16.67
2019-02-28T13:15:33.279Z,17.14
2019-02-28T13:18:07.504Z,16.93
2019-02-28T13:20:38.150Z,17.11
2019-02-28T13:23:06.997Z,17.22
2019-02-28T13:25:35.742Z,16.75
2019-02-28T13:28:06.009Z,16.63
2019-02-28T13:30:34.620Z,16.57
2019-02-28T13:33:03.395Z,16.64
2019-02-28T13:35:47.170Z,16.65
2019-02-28T13:38:33.781Z,16.67
2019-02-28T13:41:02.487Z,16.25
2019-02-28T13:43:32.098Z,16.44
2019-02-28T13:46:00.932Z,16.13
2019-02-28T13:48:32.988Z,15.49
2019-02-28T13:51:02.571Z,15.67
2019-02-28T13:53:31.791Z,15.65
2019-02-28T13:56:00.745Z,15.74
2019-02-28T13:58:29.578Z,15.49
2019-02-28T14:00:58.468Z,16.54
2019-02-28T14:03:27.533Z,16.83
2019-02-28T14:05:56.765Z,16.97
2019-02-28T14:08:26.001Z,17.78
2019-02-28T14:10:55.274Z,17.93
2019-02-28T14:13:23.920Z,18.04
2019-02-28T14:15:53.311Z,18.04
2019-02-28T14:18:23.965Z,18.64
2019-02-28T14:20:53.333Z,18.58
2019-02-28T14:23:22.216Z,18.28
2019-02-28T14:25:51.327Z,18.12
2019-02-28T14:28:20.268Z,18.27
2019-02-28T14:30:49.287Z,18.70
2019-02-28T14:33:19.378Z,18.47
2019-02-28T14:35:48.569Z,18.58
2019-02-28T14:38:17.192Z,19.06
2019-02-28T14:40:45.942Z,19.19
2019-02-28T14:43:14.594Z,19.56
2019-02-28T14:45:47.250Z,19.81
2019-02-28T14:48:17.017Z,19.75
2019-02-28T14:50:46.066Z,19.19
2019-02-28T14:53:16.668Z,18.91
2019-02-28T14:55:45.431Z,19.17
2019-02-28T14:58:14.087Z,18.84
2019-02-28T15:00:43.462Z,18.89
2019-02-28T15:03:12.408Z,19.10
2019-02-28T15:05:46.144Z,19.50
2019-02-28T15:08:16.168Z,19.54
2019-02-28T15:10:45.111Z,19.45
2019-02-28T15:13:13.699Z,19.75
2019-02-28T15:15:42.578Z,19.83
2019-02-28T15:18:14.558Z,20.03
2019-02-28T15:20:41.562Z,19.92
2019-02-28T15:23:10.362Z,19.86
2019-02-28T15:25:39.017Z,20.22
2019-02-28T15:28:10.673Z,20.02
2019-02-28T15:30:39.941Z,20.13
2019-02-28T15:33:09.629Z,20.13
2019-02-28T15:35:38.305Z,19.84
2019-02-28T15:38:09.144Z,19.92
2019-02-28T15:40:45.748Z,19.75
2019-02-28T15:43:17.419Z,19.70
2019-02-28T15:45:45.134Z,19.40
2019-02-28T15:48:13.801Z,19.50
2019-02-28T15:50:42.479Z,19.37
2019-02-28T15:53:14.429Z,19.62
2019-02-28T15:55:41.964Z,19.83
2019-02-28T15:58:10.772Z,19.95
2019-02-28T16:00:39.865Z,19.96
2019-02-28T16:03:08.607Z,20.34
2019-02-28T16:05:42.434Z,20.75
2019-02-28T16:08:10.505Z,21.67
2019-02-28T16:10:38.017Z,22.31
2019-02-28T16:13:07.967Z,22.89
2019-02-28T16:15:36.744Z,23.13
2019-02-28T16:18:08.666Z,23.54
2019-02-28T16:20:38.178Z,23.92
2019-02-28T16:23:06.836Z,24.01
2019-02-28T16:25:37.318Z,24.31
2019-02-28T16:28:08.873Z,24.61
2019-02-28T16:30:39.204Z,24.68
2019-02-28T16:33:08.142Z,24.83
2019-02-28T16:35:36.872Z,25.01
2019-02-28T16:38:06.396Z,25.12
2019-02-28T16:40:36.132Z,25.23
2019-02-28T16:43:04.875Z,25.46
2019-02-28T16:45:40.957Z,25.54
2019-02-28T16:48:08.734Z,25.58
2019-02-28T16:50:38.030Z,25.73
2019-02-28T16:53:06.674Z,25.94
2019-02-28T16:55:35.377Z,25.96
2019-02-28T16:58:04.259Z,26.03
2019-02-28T17:00:32.989Z,26.11
2019-02-28T17:03:04.064Z,26.20
2019-02-28T17:05:32.251Z,26.25
2019-02-28T17:08:00.974Z,26.39
2019-02-28T17:10:33.891Z,26.54
2019-02-28T17:13:13.060Z,26.62
2019-02-28T17:15:43.481Z,26.73
2019-02-28T17:18:21.652Z,26.87
2019-02-28T17:20:50.014Z,26.84
2019-02-28T17:23:18.813Z,26.97
2019-02-28T17:25:47.561Z,26.96
2019-02-28T17:28:23.876Z,27.04
2019-02-28T17:31:03.012Z,27.14
2019-02-28T17:33:32.068Z,27.22
2019-02-28T17:36:00.641Z,27.30
2019-02-28T17:38:32.303Z,27.37
2019-02-28T17:41:01.900Z,27.54
2019-02-28T17:43:30.898Z,27.64
2019-02-28T17:45:59.512Z,27.82
2019-02-28T17:48:56.873Z,27.95
2019-02-28T17:51:34.151Z,27.92
2019-02-28T17:54:20.923Z,28.18
2019-02-28T17:56:56.326Z,28.02
2019-02-28T17:59:50.712Z,28.26
2019-02-28T18:02:34.250Z,28.20
2019-02-28T18:05:14.883Z,28.22
2019-02-28T18:07:57.859Z,28.27
2019-02-28T18:10:47.980Z,28.46
2019-02-28T18:13:25.425Z,28.49
2019-02-28T18:16:12.147Z,28.46
2019-02-28T18:19:06.382Z,28.56
2019-02-28T18:21:53.224Z,28.62
2019-02-28T18:24:34.709Z,28.73
2019-02-28T18:27:22.899Z,28.79
2019-02-28T18:29:57.163Z,28.85
2019-02-28T18:32:25.798Z,29.02
2019-02-28T18:34:56.261Z,28.95
2019-02-28T18:37:25.451Z,29.03
2019-02-28T18:39:54.234Z,29.13
2019-02-28T18:42:23.292Z,29.06
2019-02-28T18:44:52.138Z,29.07
2019-02-28T18:47:20.840Z,29.09
2019-02-28T18:49:49.608Z,29.13
2019-02-28T18:52:20.171Z,29.18
2019-02-28T18:54:48.851Z,29.28
2019-02-28T18:57:17.712Z,29.29
2019-02-28T18:59:48.260Z,29.37
2019-02-28T19:02:17.059Z,29.49
2019-02-28T19:04:45.705Z,29.60
2019-02-28T19:07:14.407Z,29.65
2019-02-28T19:09:43.207Z,29.74
2019-02-28T19:12:12.007Z,29.76
2019-02-28T19:14:40.672Z,29.87
2019-02-28T19:17:09.292Z,29.86
2019-02-28T19:19:37.972Z,30.04
2019-02-28T19:22:08.052Z,30.03
2019-02-28T19:24:39.602Z,30.05
2019-02-28T19:27:08.281Z,30.11
2019-02-28T19:29:36.924Z,30.23
2019-02-28T19:32:05.690Z,30.26
2019-02-28T19:34:34.393Z,30.12
2019-02-28T19:37:03.024Z,30.38
2019-02-28T19:39:31.661Z,30.20
2019-02-28T19:42:00.425Z,30.11
2019-02-28T19:44:29.089Z,30.24
2019-02-28T19:46:57.724Z,30.72
2019-02-28T19:49:26.322Z,30.84
2019-02-28T19:51:54.961Z,30.73
2019-02-28T19:54:25.104Z,30.62
2019-02-28T19:56:53.964Z,30.51
2019-02-28T19:59:24.069Z,30.25
2019-02-28T20:01:52.629Z,30.18
2019-02-28T20:04:21.545Z,30.22
2019-02-28T20:06:50.245Z,30.24
2019-02-28T20:09:19.273Z,29.86
2019-02-28T20:11:47.955Z,30.05
2019-02-28T20:14:16.588Z,29.82
2019-02-28T20:16:45.464Z,29.97
2019-02-28T20:19:14.222Z,29.90
2019-02-28T20:21:42.801Z,29.75
2019-02-28T20:24:11.513Z,29.51
2019-02-28T20:26:40.267Z,29.28
2019-02-28T20:29:08.996Z,29.31
2019-02-28T20:31:38.172Z,29.52
2019-02-28T20:34:07.334Z,29.65
2019-02-28T20:36:36.135Z,29.59
2019-02-28T20:39:07.059Z,29.61
2019-02-28T20:41:35.666Z,29.82
2019-02-28T20:44:04.426Z,29.89
2019-02-28T20:46:33.084Z,30.19
2019-02-28T20:49:01.942Z,30.23
2019-02-28T20:51:30.822Z,30.38
2019-02-28T20:53:59.689Z,30.52
2019-02-28T20:56:28.442Z,30.59
2019-02-28T20:58:57.358Z,30.59
2019-02-28T21:01:25.991Z,30.66
2019-02-28T21:03:56.693Z,30.77
2019-02-28T21:06:25.619Z,30.75
2019-02-28T21:08:55.971Z,30.78
2019-02-28T21:11:24.945Z,31.07
2019-02-28T21:13:53.681Z,31.46
2019-02-28T21:16:22.391Z,31.77
2019-02-28T21:18:51.103Z,31.76
2019-02-28T21:21:19.727Z,31.77
2019-02-28T21:23:48.362Z,31.78
2019-02-28T21:26:17.232Z,31.89
2019-02-28T21:28:47.516Z,32.11
2019-02-28T21:31:16.145Z,32.20
2019-02-28T21:33:44.810Z,32.43
2019-02-28T21:36:13.462Z,32.58
2019-02-28T21:38:42.382Z,32.81
2019-02-28T21:41:11.092Z,32.97
2019-02-28T21:43:39.874Z,33.14
2019-02-28T21:46:08.519Z,33.27
2019-02-28T21:48:37.201Z,33.43
2019-02-28T21:51:06.131Z,33.58
2019-02-28T21:53:34.609Z,33.67
2019-02-28T21:56:03.489Z,33.74
2019-02-28T21:58:32.084Z,33.80
2019-02-28T22:01:00.771Z,33.93
2019-02-28T22:03:29.448Z,34.13
2019-02-28T22:05:58.102Z,34.26
2019-02-28T22:08:26.822Z,34.41
2019-02-28T22:10:55.597Z,34.48
2019-02-28T22:13:24.358Z,34.65
2019-02-28T22:15:53.044Z,34.65
2019-02-28T22:18:21.742Z,34.83
2019-02-28T22:20:50.391Z,34.82
2019-02-28T22:23:18.968Z,34.85
2019-02-28T22:25:47.553Z,34.92
2019-02-28T22:28:16.170Z,34.89
2019-02-28T22:30:46.386Z,34.90
2019-02-28T22:33:19.538Z,35.01
2019-02-28T22:35:49.789Z,35.13
2019-02-28T22:38:18.393Z,35.14
2019-02-28T22:40:47.131Z,35.15
2019-02-28T22:43:15.682Z,35.14
2019-02-28T22:45:44.335Z,35.37
2019-02-28T22:48:13.181Z,35.55
2019-02-28T22:50:41.812Z,35.51
2019-02-28T22:53:10.543Z,35.60
2019-02-28T22:55:39.216Z,35.61
2019-02-28T22:58:09.839Z,35.75
2019-02-28T23:01:00.840Z,35.82
2019-02-28T23:03:31.563Z,35.88
2019-02-28T23:06:00.501Z,35.94
2019-02-28T23:08:29.385Z,36.11
2019-02-28T23:10:58.052Z,36.21
2019-02-28T23:13:26.687Z,36.19
2019-02-28T23:15:56.989Z,36.20
2019-02-28T23:18:25.616Z,36.22
2019-02-28T23:20:54.316Z,36.18
2019-02-28T23:23:23.025Z,36.17
2019-02-28T23:25:51.660Z,36.28
2019-02-28T23:28:32.196Z,36.39
2019-02-28T23:31:18.783Z,36.48
2019-02-28T23:33:47.820Z,36.56
2019-02-28T23:36:16.462Z,36.56
2019-02-28T23:38:45.045Z,36.64
2019-02-28T23:41:13.626Z,36.66
2019-02-28T23:43:42.260Z,36.64
2019-02-28T23:46:10.867Z,36.62
2019-02-28T23:48:42.422Z,36.62
2019-02-28T23:51:11.224Z,36.71
2019-02-28T23:53:39.860Z,36.68
2019-02-28T23:56:08.528Z,36.76
2019-02-28T23:58:37.110Z,36.94
